createdAt,value
2023-03-18T00:01:02.518Z,99975.19
2023-03-18T00:06:05.175Z,99986.56
2023-03-18T00:11:06.833Z,99976.19
2023-03-18T00:16:10.604Z,99977.00
2023-03-18T00:21:12.127Z,99967.63
2023-03-18T00:26:13.662Z,99970.81
2023-03-18T00:31:16.583Z,99978.88
2023-03-18T00:36:18.527Z,99975.47
2023-03-18T00:41:20.252Z,99983.03
2023-03-18T00:46:24.348Z,99979.78
2023-03-18T00:51:27.237Z,99984.22
2023-03-18T00:56:30.986Z,99976.88
2023-03-18T01:01:33.906Z,99975.22
2023-03-18T01:06:36.456Z,99975.03
2023-03-18T01:11:38.218Z,99968.72
2023-03-18T01:16:41.067Z,99955.25
2023-03-18T01:21:43.080Z,99959.88
2023-03-18T01:26:44.575Z,99946.81
2023-03-18T01:31:47.512Z,99944.84
2023-03-18T01:36:49.084Z,99943.22
2023-03-18T01:41:50.685Z,99937.53
2023-03-18T01:46:54.042Z,99927.19
2023-03-18T01:51:58.568Z,99931.50
2023-03-18T01:57:00.466Z,99930.22
2023-03-18T02:02:05.071Z,99931.91
2023-03-18T02:07:06.630Z,99930.84
2023-03-18T02:12:08.308Z,99940.94
2023-03-18T02:17:13.291Z,99944.63
2023-03-18T02:22:20.153Z,99935.44
2023-03-18T02:27:25.161Z,99945.53
2023-03-18T02:32:28.345Z,99940.06
2023-03-18T02:37:29.887Z,99947.53
2023-03-18T02:42:32.766Z,99950.25
2023-03-18T02:47:34.372Z,99956.75
2023-03-18T02:52:35.841Z,99958.69
2023-03-18T02:57:38.729Z,99957.91
2023-03-18T03:02:40.477Z,99959.78
2023-03-18T03:07:42.009Z,99957.47
2023-03-18T03:12:45.183Z,99956.97
2023-03-18T03:17:46.842Z,99960.31
2023-03-18T03:22:48.332Z,99964.34
2023-03-18T03:27:51.184Z,99959.22
2023-03-18T03:32:52.808Z,99959.09
2023-03-18T03:37:54.532Z,99958.31
2023-03-18T03:42:57.388Z,99961.16
2023-03-18T03:47:58.918Z,99978.28
2023-03-18T03:53:00.488Z,99985.75
2023-03-18T03:58:03.370Z,99998.25
2023-03-18T04:03:04.876Z,99986.63
2023-03-18T04:08:06.473Z,99978.88
2023-03-18T04:13:09.456Z,99986.38
2023-03-18T04:18:11.866Z,99988.34
2023-03-18T04:23:13.495Z,99996.94
2023-03-18T04:28:16.442Z,100001.88
2023-03-18T04:33:18.281Z,100009.44
2023-03-18T04:38:19.882Z,100009.91
2023-03-18T04:43:22.803Z,100009.06
2023-03-18T04:48:24.265Z,100019.97
2023-03-18T04:53:25.717Z,100027.97
2023-03-18T04:58:28.614Z,100023.91
2023-03-18T05:03:30.179Z,100022.56
2023-03-18T05:08:31.728Z,100028.94
2023-03-18T05:13:34.547Z,100031.78
2023-03-18T05:18:36.179Z,100033.78
2023-03-18T05:23:37.789Z,100034.75
2023-03-18T05:28:40.737Z,100041.69
2023-03-18T05:33:43.883Z,100054.91
2023-03-18T05:38:45.316Z,100040.22
2023-03-18T05:43:48.186Z,100043.31
2023-03-18T05:48:49.673Z,100038.06
2023-03-18T05:53:51.254Z,100039.38
2023-03-18T05:58:54.210Z,100040.94
2023-03-18T06:03:55.756Z,100057.91
2023-03-18T06:08:57.276Z,100058.38
2023-03-18T06:14:00.166Z,100051.78
2023-03-18T06:19:01.997Z,100065.38
2023-03-18T06:24:03.708Z,100060.78
2023-03-18T06:29:06.654Z,100057.78
2023-03-18T06:34:08.143Z,100072.25
2023-03-18T06:39:09.581Z,100073.66
2023-03-18T06:44:12.741Z,100078.47
2023-03-18T06:49:14.436Z,100084.69
2023-03-18T06:54:15.975Z,100083.44
2023-03-18T06:59:18.799Z,100080.06
2023-03-18T07:04:20.421Z,100082.19
2023-03-18T07:09:22.048Z,100079.91
2023-03-18T07:14:24.920Z,100088.00
2023-03-18T07:19:26.623Z,100088.34
2023-03-18T07:24:28.246Z,100088.22
2023-03-18T07:29:31.320Z,100092.63
2023-03-18T07:34:32.848Z,100094.75
2023-03-18T07:39:34.375Z,100086.34
2023-03-18T07:44:37.332Z,100090.78
2023-03-18T07:49:38.791Z,100092.25
2023-03-18T07:54:40.278Z,100089.50
2023-03-18T07:59:43.248Z,100084.31
2023-03-18T08:04:44.772Z,100089.50
2023-03-18T08:09:46.238Z,100084.19
2023-03-18T08:14:49.192Z,100085.19
2023-03-18T08:19:50.628Z,100089.38
2023-03-18T08:24:52.126Z,100089.88
2023-03-18T08:29:54.977Z,100088.09
2023-03-18T08:34:56.640Z,100078.41
2023-03-18T08:39:58.079Z,100080.00
2023-03-18T08:45:00.935Z,100077.44
2023-03-18T08:50:02.468Z,100082.28
2023-03-18T08:55:04.259Z,100086.56
2023-03-18T09:00:08.158Z,100087.75
2023-03-18T09:05:09.933Z,100082.19
2023-03-18T09:10:11.656Z,100077.81
2023-03-18T09:15:18.013Z,100073.16
2023-03-18T09:20:19.584Z,100072.50
2023-03-18T09:25:21.193Z,100084.56
2023-03-18T09:30:24.210Z,100082.00
2023-03-18T09:35:25.728Z,100085.66
2023-03-18T09:40:28.539Z,100080.91
2023-03-18T09:45:34.137Z,100073.84
2023-03-18T09:50:39.399Z,100074.50
2023-03-18T09:55:42.714Z,100075.28
2023-03-18T10:00:45.653Z,100083.66
2023-03-18T10:05:49.902Z,100074.91
2023-03-18T10:10:51.348Z,100079.13
2023-03-18T10:15:55.226Z,100087.19
2023-03-18T10:21:02.830Z,100082.34
2023-03-18T10:26:05.729Z,100078.34
2023-03-18T10:31:16.855Z,100076.44
2023-03-18T10:36:19.574Z,100082.25
2023-03-18T10:41:24.265Z,100083.09
2023-03-18T10:46:28.245Z,100078.91
2023-03-18T10:51:34.453Z,100087.19
2023-03-18T10:56:36.515Z,100072.38
2023-03-18T11:01:39.532Z,100070.06
2023-03-18T11:06:43.313Z,100068.59
2023-03-18T11:11:45.237Z,100070.25
2023-03-18T11:16:49.261Z,100077.19
2023-03-18T11:21:59.498Z,100077.88
2023-03-18T11:27:01.021Z,100072.72
2023-03-18T11:32:04.137Z,100076.09
2023-03-18T11:37:07.520Z,100065.72
2023-03-18T11:42:17.267Z,100058.25
2023-03-18T11:47:22.524Z,100054.66
2023-03-18T11:52:31.357Z,100062.28
2023-03-18T11:57:39.512Z,100058.31
2023-03-18T12:02:56.056Z,100059.44
2023-03-18T12:08:03.172Z,100059.06
2023-03-18T12:13:08.169Z,100058.59
2023-03-18T12:18:16.425Z,100044.22
2023-03-18T12:23:31.764Z,100039.19
2023-03-18T12:28:51.142Z,100039.41
2023-03-18T12:33:54.332Z,100048.56
2023-03-18T12:39:12.635Z,100048.97
2023-03-18T12:44:18.954Z,100042.00
2023-03-18T12:49:23.812Z,100046.03
2023-03-18T12:54:29.973Z,100036.16
2023-03-18T12:59:34.090Z,100039.63
2023-03-18T13:04:37.678Z,100049.47
2023-03-18T13:09:43.968Z,100041.84
2023-03-18T13:14:51.910Z,100037.44
2023-03-18T13:19:53.434Z,100036.91
2023-03-18T13:25:03.588Z,100039.25
2023-03-18T13:30:11.465Z,100047.00
2023-03-18T13:35:23.705Z,100031.88
2023-03-18T13:40:33.077Z,100025.47
2023-03-18T13:45:38.320Z,100025.97
2023-03-18T13:50:42.298Z,100022.53
2023-03-18T13:55:49.364Z,100024.50
2023-03-18T14:01:09.444Z,100030.22
2023-03-18T14:06:22.568Z,100016.03
2023-03-18T14:11:50.521Z,100015.44
2023-03-18T14:16:53.476Z,100005.00
2023-03-18T14:22:05.143Z,100007.69
2023-03-18T14:27:16.427Z,100007.47
2023-03-18T14:32:36.439Z,100000.06
2023-03-18T14:37:54.032Z,99999.59
2023-03-18T14:42:57.976Z,99996.53
2023-03-18T14:48:03.361Z,99984.13
2023-03-18T14:53:09.566Z,99986.78
2023-03-18T14:58:14.341Z,99984.44
2023-03-18T15:03:21.116Z,99980.88
2023-03-18T15:08:29.868Z,99974.50
2023-03-18T15:13:41.429Z,99966.41
2023-03-18T15:18:44.385Z,99964.97
2023-03-18T15:23:47.658Z,99962.56
2023-03-18T15:28:53.041Z,99962.41
2023-03-18T15:34:06.772Z,99953.03
2023-03-18T15:39:21.478Z,99954.94
2023-03-18T15:44:25.135Z,99942.78
2023-03-18T15:49:28.115Z,99953.56
2023-03-18T15:54:30.429Z,99955.06
2023-03-18T15:59:32.445Z,99954.06
2023-03-18T16:04:35.375Z,99965.06
2023-03-18T16:09:37.374Z,99959.66
2023-03-18T16:14:39.255Z,99958.84
2023-03-18T16:19:42.594Z,99956.09
2023-03-18T16:24:44.258Z,99955.25
2023-03-18T16:29:45.741Z,99951.88
2023-03-18T16:34:48.619Z,99960.03
2023-03-18T16:39:50.193Z,99965.13
2023-03-18T16:44:51.735Z,99963.84
2023-03-18T16:49:54.610Z,99961.41
2023-03-18T16:54:56.058Z,99970.88
2023-03-18T16:59:57.524Z,99976.94
2023-03-18T17:05:00.788Z,99983.06
2023-03-18T17:10:02.336Z,99980.22
2023-03-18T17:15:04.390Z,99998.50
2023-03-18T17:20:17.052Z,100010.78
2023-03-18T17:25:18.610Z,100019.72
2023-03-18T17:30:21.452Z,100012.50
2023-03-18T17:35:24.499Z,100014.41
2023-03-18T17:40:28.652Z,100025.13
2023-03-18T17:45:31.285Z,100020.09
2023-03-18T17:50:34.370Z,100027.09
2023-03-18T17:55:35.791Z,100035.38
2023-03-18T18:00:37.260Z,100034.59
2023-03-18T18:05:40.084Z,100036.63
2023-03-18T18:10:41.605Z,100042.66
2023-03-18T18:15:43.217Z,100054.78
2023-03-18T18:20:46.420Z,100043.25
2023-03-18T18:25:47.894Z,100052.84
2023-03-18T18:30:49.767Z,100054.25
2023-03-18T18:35:52.939Z,100070.69
2023-03-18T18:40:54.905Z,100055.13
2023-03-18T18:45:56.947Z,100067.34
2023-03-18T18:51:00.157Z,100063.16
2023-03-18T18:56:06.253Z,100071.59
2023-03-18T19:01:07.978Z,100077.81
2023-03-18T19:06:17.733Z,100075.16
2023-03-18T19:11:19.148Z,100077.88
2023-03-18T19:16:26.519Z,100087.03
2023-03-18T19:21:29.505Z,100089.41
2023-03-18T19:26:31.006Z,100084.13
2023-03-18T19:31:32.523Z,100082.31
2023-03-18T19:36:37.597Z,100081.84
2023-03-18T19:41:39.077Z,100091.06
2023-03-18T19:46:40.760Z,100094.63
2023-03-18T19:51:43.676Z,100092.78
2023-03-18T19:56:45.230Z,100100.66
2023-03-18T20:01:46.786Z,100106.88
2023-03-18T20:06:49.595Z,100106.31
2023-03-18T20:11:54.087Z,100110.75
2023-03-18T20:16:55.793Z,100122.38
2023-03-18T20:21:58.666Z,100122.91
2023-03-18T20:27:00.129Z,100121.56
2023-03-18T20:32:01.664Z,100134.28
2023-03-18T20:37:05.531Z,100139.31
2023-03-18T20:42:12.208Z,100143.25
2023-03-18T20:47:13.673Z,100145.94
2023-03-18T20:52:22.809Z,100153.41
2023-03-18T20:57:24.585Z,100159.38
2023-03-18T21:02:27.944Z,100163.19
2023-03-18T21:07:30.960Z,100153.75
2023-03-18T21:12:32.726Z,100151.88
2023-03-18T21:17:34.212Z,100149.97
2023-03-18T21:22:37.040Z,100153.97
2023-03-18T21:27:38.518Z,100155.25
2023-03-18T21:32:40.132Z,100155.97
2023-03-18T21:37:43.033Z,100143.50
2023-03-18T21:42:44.751Z,100152.75
2023-03-18T21:47:46.362Z,100152.75
2023-03-18T21:52:49.527Z,100145.59
2023-03-18T21:57:50.949Z,100154.69
2023-03-18T22:02:52.460Z,100156.34
2023-03-18T22:07:55.553Z,100150.19
2023-03-18T22:12:57.313Z,100144.44
2023-03-18T22:17:58.794Z,100149.16
2023-03-18T22:23:01.997Z,100141.09
2023-03-18T22:28:03.776Z,100142.06
2023-03-18T22:33:05.602Z,100144.63
2023-03-18T22:38:11.378Z,100136.75
2023-03-18T22:43:30.598Z,100136.81
2023-03-18T22:48:32.223Z,100143.25
2023-03-18T22:53:36.812Z,100135.13
2023-03-18T22:58:38.868Z,100135.84
2023-03-18T23:03:40.438Z,100141.91
2023-03-18T23:08:43.376Z,100140.34
2023-03-18T23:13:46.940Z,100149.94
2023-03-18T23:18:48.374Z,100146.78
2023-03-18T23:23:51.301Z,100141.03
2023-03-18T23:28:52.796Z,100152.38
2023-03-18T23:33:54.260Z,100144.84
2023-03-18T23:38:57.165Z,100142.41
2023-03-18T23:43:58.614Z,100142.72
2023-03-18T23:49:00.152Z,100144.19
2023-03-18T23:54:03.073Z,100138.22
2023-03-18T23:59:04.809Z,100128.00
